createdAt,value
2023-04-01T00:00:00.895Z,98473.55
2023-04-01T00:02:29.761Z,98474.88
2023-04-01T00:04:58.056Z,98475.27
2023-04-01T00:07:26.669Z,98475.41
2023-04-01T00:10:00.004Z,98473.73
2023-04-01T00:12:28.272Z,98469.29
2023-04-01T00:14:56.657Z,98469.10
2023-04-01T00:17:25.113Z,98470.06
2023-04-01T00:19:53.242Z,98469.41
2023-04-01T00:22:21.291Z,98463.31
2023-04-01T00:24:50.523Z,98463.16
2023-04-01T00:27:18.713Z,98464.02
2023-04-01T00:29:47.403Z,98463.33
2023-04-01T00:32:15.583Z,98463.36
2023-04-01T00:34:45.316Z,98459.90
2023-04-01T00:37:13.735Z,98457.27
2023-04-01T00:39:41.798Z,98454.33
2023-04-01T00:42:10.348Z,98459.15
2023-04-01T00:44:38.982Z,98469.45
2023-04-01T00:47:07.886Z,98465.25
2023-04-01T00:49:41.353Z,98472.96
2023-04-01T00:52:14.091Z,98468.30
2023-04-01T00:54:43.302Z,98463.27
2023-04-01T00:57:14.793Z,98460.51
2023-04-01T00:59:46.296Z,98457.14
2023-04-01T01:02:14.960Z,98462.24
2023-04-01T01:04:43.926Z,98462.67
2023-04-01T01:07:42.882Z,98462.20
2023-04-01T01:10:18.917Z,98466.17
2023-04-01T01:12:59.120Z,98462.19
2023-04-01T01:15:32.646Z,98465.92
2023-04-01T01:18:07.184Z,98467.48
2023-04-01T01:20:35.405Z,98468.53
2023-04-01T01:23:24.365Z,98467.60
2023-04-01T01:25:58.093Z,98469.95
2023-04-01T01:28:49.022Z,98476.83
2023-04-01T01:31:42.225Z,98475.95
2023-04-01T01:34:23.112Z,98480.16
2023-04-01T01:36:57.108Z,98482.77
2023-04-01T01:39:28.900Z,98481.41
2023-04-01T01:42:02.517Z,98485.30
2023-04-01T01:44:31.202Z,98480.27
2023-04-01T01:46:59.676Z,98483.45
2023-04-01T01:49:31.301Z,98487.60
2023-04-01T01:51:59.780Z,98486.55
2023-04-01T01:54:28.134Z,98487.86
2023-04-01T01:57:08.740Z,98489.33
2023-04-01T01:59:39.370Z,98489.83
2023-04-01T02:02:09.160Z,98488.55
2023-04-01T02:04:40.495Z,98489.81
2023-04-01T02:07:12.201Z,98487.40
2023-04-01T02:09:41.951Z,98491.09
2023-04-01T02:12:11.988Z,98490.52
2023-04-01T02:14:48.686Z,98487.96
2023-04-01T02:17:18.451Z,98492.36
2023-04-01T02:20:00.359Z,98491.73
2023-04-01T02:22:36.513Z,98496.56
2023-04-01T02:25:09.825Z,98501.15
2023-04-01T02:27:39.862Z,98497.83
2023-04-01T02:30:08.884Z,98493.77
2023-04-01T02:32:40.910Z,98492.27
2023-04-01T02:35:12.883Z,98496.16
2023-04-01T02:37:44.563Z,98496.25
2023-04-01T02:40:14.969Z,98497.98
2023-04-01T02:42:45.866Z,98493.80
2023-04-01T02:45:14.321Z,98489.93
2023-04-01T02:47:43.295Z,98485.58
2023-04-01T02:50:11.628Z,98483.08
2023-04-01T02:52:41.456Z,98482.19
2023-04-01T02:55:10.326Z,98484.83
2023-04-01T02:57:38.847Z,98483.28
2023-04-01T03:00:12.111Z,98480.47
2023-04-01T03:02:40.761Z,98476.13
2023-04-01T03:05:09.315Z,98475.87
2023-04-01T03:07:37.600Z,98472.38
2023-04-01T03:10:07.859Z,98476.10
2023-04-01T03:12:36.872Z,98470.39
2023-04-01T03:15:10.725Z,98473.20
2023-04-01T03:17:42.525Z,98474.11
2023-04-01T03:20:12.267Z,98476.83
2023-04-01T03:22:43.021Z,98478.89
2023-04-01T03:25:12.092Z,98479.33
2023-04-01T03:27:40.324Z,98486.43
2023-04-01T03:30:09.313Z,98482.30
2023-04-01T03:32:41.405Z,98482.45
2023-04-01T03:35:11.356Z,98485.16
2023-04-01T03:37:40.358Z,98482.44
2023-04-01T03:40:10.082Z,98485.19
2023-04-01T03:42:38.949Z,98489.30
2023-04-01T03:45:10.817Z,98486.58
2023-04-01T03:47:40.547Z,98492.06
2023-04-01T03:50:09.389Z,98492.16
2023-04-01T03:52:37.634Z,98498.68
2023-04-01T03:55:06.148Z,98505.11
2023-04-01T03:57:34.773Z,98507.44
2023-04-01T04:00:06.513Z,98509.85
2023-04-01T04:02:44.456Z,98515.27
2023-04-01T04:05:14.605Z,98522.46
2023-04-01T04:07:43.432Z,98526.71
2023-04-01T04:10:11.681Z,98521.28
2023-04-01T04:12:41.370Z,98524.07
2023-04-01T04:15:10.584Z,98520.70
2023-04-01T04:17:39.454Z,98520.36
2023-04-01T04:20:09.717Z,98519.19
2023-04-01T04:22:38.253Z,98521.70
2023-04-01T04:25:08.663Z,98519.67
2023-04-01T04:27:37.192Z,98521.38
2023-04-01T04:30:10.013Z,98513.13
2023-04-01T04:32:38.443Z,98510.29
2023-04-01T04:35:07.760Z,98503.67
2023-04-01T04:37:41.263Z,98507.03
2023-04-01T04:40:09.741Z,98505.19
2023-04-01T04:42:38.304Z,98510.86
2023-04-01T04:45:13.717Z,98512.21
2023-04-01T04:47:46.186Z,98510.33
2023-04-01T04:50:19.827Z,98510.06
2023-04-01T04:52:47.984Z,98508.21
2023-04-01T04:55:16.234Z,98506.89
2023-04-01T04:57:49.028Z,98508.48
2023-04-01T05:00:17.786Z,98507.55
2023-04-01T05:02:55.414Z,98506.05
2023-04-01T05:05:24.529Z,98505.73
2023-04-01T05:07:52.691Z,98503.11
2023-04-01T05:10:23.810Z,98504.13
2023-04-01T05:12:52.449Z,98505.83
2023-04-01T05:15:23.397Z,98506.96
2023-04-01T05:17:51.797Z,98510.42
2023-04-01T05:20:20.876Z,98508.63
2023-04-01T05:22:49.315Z,98514.48
2023-04-01T05:25:18.156Z,98519.80
2023-04-01T05:27:46.404Z,98522.36
2023-04-01T05:30:17.475Z,98516.34
2023-04-01T05:33:10.101Z,98523.38
2023-04-01T05:35:38.499Z,98525.89
2023-04-01T05:38:08.117Z,98530.14
2023-04-01T05:40:37.082Z,98528.42
2023-04-01T05:43:05.170Z,98529.41
2023-04-01T05:45:34.259Z,98523.71
2023-04-01T05:48:09.078Z,98527.23
2023-04-01T05:50:42.279Z,98531.91
2023-04-01T05:53:12.034Z,98535.50
2023-04-01T05:55:41.940Z,98535.33
2023-04-01T05:58:10.143Z,98532.28
2023-04-01T06:00:39.321Z,98530.54
2023-04-01T06:03:27.452Z,98533.50
2023-04-01T06:05:55.681Z,98530.38
2023-04-01T06:08:26.410Z,98523.45
2023-04-01T06:11:19.696Z,98520.72
2023-04-01T06:14:17.411Z,98522.16
2023-04-01T06:16:51.263Z,98519.14
2023-04-01T06:19:56.083Z,98519.83
2023-04-01T06:23:04.771Z,98518.16
2023-04-01T06:26:10.099Z,98514.35
2023-04-01T06:28:46.377Z,98511.60
2023-04-01T06:31:34.274Z,98510.61
2023-04-01T06:34:30.232Z,98515.12
2023-04-01T06:37:01.528Z,98515.52
2023-04-01T06:39:30.507Z,98513.02
2023-04-01T06:42:02.680Z,98512.55
2023-04-01T06:44:49.602Z,98517.80
2023-04-01T06:47:43.896Z,98519.55
2023-04-01T06:50:42.249Z,98520.65
2023-04-01T06:54:06.454Z,98522.27
2023-04-01T06:56:59.418Z,98523.80
2023-04-01T06:59:30.279Z,98518.02
2023-04-01T07:02:10.926Z,98516.86
2023-04-01T07:04:41.913Z,98513.41
2023-04-01T07:07:39.231Z,98515.02
2023-04-01T07:10:44.486Z,98510.64
2023-04-01T07:13:45.800Z,98515.30
2023-04-01T07:16:32.771Z,98514.25
2023-04-01T07:19:16.026Z,98514.73
2023-04-01T07:22:45.849Z,98512.77
2023-04-01T07:25:45.754Z,98511.52
2023-04-01T07:28:35.369Z,98510.92
2023-04-01T07:31:35.039Z,98514.97
2023-04-01T07:34:27.535Z,98520.05
2023-04-01T07:37:04.580Z,98528.34
2023-04-01T07:39:46.730Z,98529.89
2023-04-01T07:42:41.104Z,98533.48
2023-04-01T07:45:22.214Z,98536.29
2023-04-01T07:48:25.550Z,98534.12
2023-04-01T07:51:05.876Z,98530.93
2023-04-01T07:53:55.536Z,98531.73
2023-04-01T07:56:57.043Z,98533.33
2023-04-01T07:59:59.913Z,98533.16
2023-04-01T08:03:02.229Z,98534.35
2023-04-01T08:05:58.708Z,98530.70
2023-04-01T08:08:41.869Z,98533.02
2023-04-01T08:11:43.660Z,98533.45
2023-04-01T08:14:52.957Z,98526.16
2023-04-01T08:18:04.383Z,98527.73
2023-04-01T08:20:44.150Z,98534.04
2023-04-01T08:23:22.587Z,98536.44
2023-04-01T08:26:25.470Z,98530.69
2023-04-01T08:28:55.905Z,98536.23
2023-04-01T08:31:33.013Z,98541.19
2023-04-01T08:34:01.325Z,98538.89
2023-04-01T08:36:32.664Z,98538.23
2023-04-01T08:39:43.486Z,98548.05
2023-04-01T08:42:29.959Z,98542.80
2023-04-01T08:45:33.476Z,98534.74
2023-04-01T08:48:29.252Z,98532.36
2023-04-01T08:51:15.888Z,98531.25
2023-04-01T08:53:54.198Z,98528.45
2023-04-01T08:56:51.336Z,98523.94
2023-04-01T08:59:27.152Z,98510.35
2023-04-01T09:02:22.883Z,98496.29
2023-04-01T09:05:12.407Z,98493.64
2023-04-01T09:07:50.827Z,98481.53
2023-04-01T09:10:23.669Z,98478.47
2023-04-01T09:13:05.746Z,98474.95
2023-04-01T09:16:26.354Z,98474.83
2023-04-01T09:19:17.660Z,98464.59
2023-04-01T09:21:49.992Z,98464.92
2023-04-01T09:24:24.012Z,98465.10
2023-04-01T09:27:24.741Z,98471.51
2023-04-01T09:29:53.549Z,98469.69
2023-04-01T09:33:12.897Z,98466.47
2023-04-01T09:35:48.529Z,98471.72
2023-04-01T09:38:32.612Z,98473.85
2023-04-01T09:41:08.547Z,98475.95
2023-04-01T09:43:58.945Z,98470.69
2023-04-01T09:46:57.583Z,98467.64
2023-04-01T09:49:56.265Z,98464.55
2023-04-01T09:52:33.841Z,98457.29
2023-04-01T09:55:51.094Z,98452.18
2023-04-01T09:58:57.427Z,98447.40
2023-04-01T10:02:23.770Z,98451.10
2023-04-01T10:04:52.212Z,98441.43
2023-04-01T10:08:01.543Z,98447.05
2023-04-01T10:10:48.968Z,98440.36
2023-04-01T10:14:14.339Z,98437.88
2023-04-01T10:16:56.817Z,98429.98
2023-04-01T10:19:36.942Z,98420.64
2023-04-01T10:22:25.496Z,98419.23
2023-04-01T10:25:27.887Z,98416.50
2023-04-01T10:28:11.419Z,98412.45
2023-04-01T10:31:30.470Z,98399.30
2023-04-01T10:34:14.898Z,98397.27
2023-04-01T10:36:55.877Z,98397.45
2023-04-01T10:39:58.689Z,98391.33
2023-04-01T10:42:59.121Z,98389.79
2023-04-01T10:45:59.324Z,98391.60
2023-04-01T10:50:23.346Z,98376.84
2023-04-01T10:52:57.913Z,98377.42
2023-04-01T10:55:36.734Z,98380.05
2023-04-01T10:58:46.474Z,98378.63
2023-04-01T11:01:36.767Z,98380.89
2023-04-01T11:04:32.946Z,98378.77
2023-04-01T11:07:44.051Z,98377.75
2023-04-01T11:10:36.456Z,98374.11
2023-04-01T11:13:18.016Z,98374.02
2023-04-01T11:15:59.813Z,98379.67
2023-04-01T11:18:56.941Z,98375.73
2023-04-01T11:21:50.242Z,98376.83
2023-04-01T11:24:57.339Z,98373.23
2023-04-01T11:27:56.933Z,98369.18
2023-04-01T11:30:59.842Z,98363.38
2023-04-01T11:33:34.950Z,98361.67
2023-04-01T11:36:26.222Z,98362.27
2023-04-01T11:38:58.018Z,98359.05
2023-04-01T11:42:09.637Z,98355.56
2023-04-01T11:45:15.409Z,98356.10
2023-04-01T11:48:13.605Z,98350.85
2023-04-01T11:50:53.890Z,98348.35
2023-04-01T11:53:49.748Z,98347.52
2023-04-01T11:56:33.346Z,98338.78
2023-04-01T11:59:28.266Z,98338.56
2023-04-01T12:02:11.804Z,98339.61
2023-04-01T12:05:15.869Z,98344.25
2023-04-01T12:07:59.148Z,98343.20
2023-04-01T12:10:48.171Z,98338.91
2023-04-01T12:13:29.519Z,98327.38
2023-04-01T12:16:14.006Z,98322.18
2023-04-01T12:19:05.532Z,98320.71
2023-04-01T12:21:44.077Z,98309.23
2023-04-01T12:24:42.319Z,98308.98
2023-04-01T12:27:22.602Z,98305.05
2023-04-01T12:30:15.421Z,98301.73
2023-04-01T12:32:50.923Z,98295.33
2023-04-01T12:35:56.931Z,98297.83
2023-04-01T12:38:25.293Z,98288.57
2023-04-01T12:41:12.026Z,98286.80
2023-04-01T12:43:59.376Z,98286.64
2023-04-01T12:46:42.939Z,98284.44
2023-04-01T12:49:17.133Z,98284.66
2023-04-01T12:51:51.927Z,98282.14
2023-04-01T12:55:00.699Z,98283.48
2023-04-01T12:57:35.400Z,98282.77
2023-04-01T13:00:21.852Z,98277.23
2023-04-01T13:03:04.001Z,98275.30
2023-04-01T13:05:35.096Z,98276.09
2023-04-01T13:08:26.569Z,98278.14
2023-04-01T13:10:59.480Z,98278.85
2023-04-01T13:13:36.837Z,98276.91
2023-04-01T13:16:23.864Z,98278.64
2023-04-01T13:18:51.943Z,98277.30
2023-04-01T13:21:42.157Z,98277.67
2023-04-01T13:24:41.654Z,98275.70
2023-04-01T13:27:12.730Z,98275.20
2023-04-01T13:30:26.450Z,98274.85
2023-04-01T13:33:17.633Z,98280.70
2023-04-01T13:35:48.536Z,98278.31
2023-04-01T13:38:37.056Z,98283.28
2023-04-01T13:41:20.266Z,98284.20
2023-04-01T13:44:03.588Z,98283.30
2023-04-01T13:46:43.061Z,98277.84
2023-04-01T13:49:30.376Z,98276.22
2023-04-01T13:52:09.892Z,98278.55
2023-04-01T13:54:48.429Z,98281.07
2023-04-01T13:57:41.282Z,98282.19
2023-04-01T14:00:39.829Z,98286.98
2023-04-01T14:03:38.324Z,98288.02
2023-04-01T14:06:32.777Z,98286.82
2023-04-01T14:09:18.950Z,98294.98
2023-04-01T14:11:54.775Z,98292.16
2023-04-01T14:14:34.789Z,98295.55
2023-04-01T14:17:21.406Z,98289.83
2023-04-01T14:20:08.578Z,98287.37
2023-04-01T14:23:19.508Z,98293.31
2023-04-01T14:26:02.905Z,98291.08
2023-04-01T14:28:52.719Z,98292.53
2023-04-01T14:31:43.223Z,98292.98
2023-04-01T14:34:23.904Z,98293.07
2023-04-01T14:37:16.872Z,98294.63
2023-04-01T14:39:46.206Z,98295.80
2023-04-01T14:42:29.809Z,98295.71
2023-04-01T14:45:29.009Z,98297.30
2023-04-01T14:47:58.279Z,98300.67
2023-04-01T14:50:30.630Z,98305.69
2023-04-01T14:53:32.987Z,98307.56
2023-04-01T14:56:01.912Z,98308.95
2023-04-01T14:58:51.689Z,98312.05
2023-04-01T15:02:01.445Z,98316.45
2023-04-01T15:04:53.938Z,98318.16
2023-04-01T15:08:03.493Z,98321.86
2023-04-01T15:11:16.200Z,98326.20
2023-04-01T15:14:10.106Z,98327.49
2023-04-01T15:17:01.160Z,98331.16
2023-04-01T15:19:48.692Z,98336.85
2023-04-01T15:22:51.003Z,98339.98
2023-04-01T15:25:25.382Z,98346.81
2023-04-01T15:28:15.993Z,98352.61
2023-04-01T15:30:53.719Z,98355.56
2023-04-01T15:33:37.577Z,98360.98
2023-04-01T15:36:17.859Z,98365.61
2023-04-01T15:39:04.972Z,98374.39
2023-04-01T15:42:08.743Z,98383.87
2023-04-01T15:44:39.454Z,98391.23
2023-04-01T15:47:30.599Z,98394.79
2023-04-01T15:50:05.787Z,98396.11
2023-04-01T15:53:02.161Z,98403.76
2023-04-01T15:56:15.636Z,98408.76
2023-04-01T15:59:09.948Z,98413.35
2023-04-01T16:01:53.216Z,98418.96
2023-04-01T16:04:48.558Z,98425.02
2023-04-01T16:07:39.137Z,98423.41
2023-04-01T16:10:33.097Z,98426.19
2023-04-01T16:13:13.657Z,98432.52
2023-04-01T16:15:52.553Z,98439.05
2023-04-01T16:18:27.607Z,98441.77
2023-04-01T16:20:59.202Z,98446.21
2023-04-01T16:23:51.632Z,98450.36
2023-04-01T16:26:27.587Z,98455.05
2023-04-01T16:29:09.564Z,98461.20
2023-04-01T16:32:06.908Z,98464.70
2023-04-01T16:34:37.487Z,98471.79
2023-04-01T16:37:14.051Z,98475.36
2023-04-01T16:39:55.569Z,98478.91
2023-04-01T16:43:04.753Z,98490.30
2023-04-01T16:45:45.360Z,98497.55
2023-04-01T16:48:35.356Z,98497.06
2023-04-01T16:51:05.941Z,98506.90
2023-04-01T16:54:07.864Z,98509.92
2023-04-01T16:56:43.127Z,98513.05
2023-04-01T16:59:11.760Z,98520.80
2023-04-01T17:01:53.730Z,98519.39
2023-04-01T17:04:41.557Z,98524.19
2023-04-01T17:07:22.534Z,98523.38
2023-04-01T17:10:00.578Z,98527.83
2023-04-01T17:12:34.677Z,98524.84
2023-04-01T17:15:52.133Z,98530.39
2023-04-01T17:18:30.136Z,98532.34
2023-04-01T17:21:47.620Z,98537.80
2023-04-01T17:24:41.942Z,98540.98
2023-04-01T17:27:35.042Z,98540.86
2023-04-01T17:30:07.946Z,98543.30
2023-04-01T17:33:03.845Z,98543.04
2023-04-01T17:36:10.800Z,98542.46
2023-04-01T17:39:01.750Z,98546.80
2023-04-01T17:41:52.021Z,98550.72
2023-04-01T17:44:49.784Z,98552.86
2023-04-01T17:47:21.210Z,98555.79
2023-04-01T17:49:50.445Z,98559.69
2023-04-01T17:52:30.893Z,98556.86
2023-04-01T17:55:05.099Z,98556.22
2023-04-01T17:57:46.267Z,98556.11
2023-04-01T18:00:18.108Z,98557.84
2023-04-01T18:03:12.901Z,98560.02
2023-04-01T18:06:06.184Z,98558.23
2023-04-01T18:08:44.980Z,98564.51
2023-04-01T18:11:53.707Z,98566.82
2023-04-01T18:14:51.112Z,98566.45
2023-04-01T18:17:26.439Z,98565.96
2023-04-01T18:20:01.752Z,98569.91
2023-04-01T18:22:38.582Z,98570.70
2023-04-01T18:25:14.331Z,98572.48
2023-04-01T18:27:45.669Z,98571.50
2023-04-01T18:30:31.625Z,98571.81
2023-04-01T18:33:16.649Z,98569.73
2023-04-01T18:35:52.133Z,98571.59
2023-04-01T18:38:27.503Z,98569.91
2023-04-01T18:42:06.959Z,98573.76
2023-04-01T18:44:44.646Z,98575.11
2023-04-01T18:47:34.604Z,98576.80
2023-04-01T18:50:23.393Z,98576.59
2023-04-01T18:52:55.405Z,98580.88
2023-04-01T18:55:24.311Z,98580.56
2023-04-01T18:58:14.763Z,98581.98
2023-04-01T19:00:46.738Z,98583.20
2023-04-01T19:03:23.108Z,98583.38
2023-04-01T19:05:54.316Z,98582.44
2023-04-01T19:08:34.629Z,98581.90
2023-04-01T19:11:10.136Z,98578.08
2023-04-01T19:13:43.078Z,98578.69
2023-04-01T19:16:38.695Z,98578.35
2023-04-01T19:19:15.848Z,98577.82
2023-04-01T19:21:53.999Z,98578.00
2023-04-01T19:24:52.801Z,98580.83
2023-04-01T19:27:43.117Z,98580.48
2023-04-01T19:30:36.470Z,98581.40
2023-04-01T19:33:44.704Z,98582.32
2023-04-01T19:36:22.303Z,98583.13
2023-04-01T19:39:33.416Z,98581.42
2023-04-01T19:42:43.579Z,98583.90
2023-04-01T19:45:29.714Z,98586.59
2023-04-01T19:48:16.939Z,98584.02
2023-04-01T19:50:57.101Z,98589.34
2023-04-01T19:53:31.665Z,98592.61
2023-04-01T19:56:24.783Z,98588.23
2023-04-01T19:59:08.124Z,98596.00
2023-04-01T20:01:50.498Z,98594.19
2023-04-01T20:04:46.951Z,98595.84
2023-04-01T20:07:39.212Z,98591.63
2023-04-01T20:10:14.811Z,98596.28
2023-04-01T20:12:51.075Z,98593.80
2023-04-01T20:15:22.152Z,98596.84
2023-04-01T20:17:51.087Z,98598.07
2023-04-01T20:20:21.543Z,98600.20
2023-04-01T20:23:16.287Z,98602.94
2023-04-01T20:25:49.714Z,98602.92
2023-04-01T20:28:18.603Z,98601.42
2023-04-01T20:31:03.803Z,98599.77
2023-04-01T20:33:44.536Z,98598.10
2023-04-01T20:36:52.799Z,98598.17
2023-04-01T20:39:33.199Z,98598.61
2023-04-01T20:42:23.461Z,98599.67
2023-04-01T20:45:00.508Z,98603.59
2023-04-01T20:48:06.553Z,98601.21
2023-04-01T20:51:00.121Z,98603.00
2023-04-01T20:53:33.189Z,98599.26
2023-04-01T20:56:07.434Z,98603.95
2023-04-01T20:58:51.462Z,98602.31
2023-04-01T21:01:57.132Z,98602.16
2023-04-01T21:04:58.028Z,98599.69
2023-04-01T21:07:46.945Z,98599.86
2023-04-01T21:10:53.996Z,98601.70
2023-04-01T21:13:42.254Z,98602.13
2023-04-01T21:16:23.143Z,98601.99
2023-04-01T21:19:17.577Z,98603.29
2023-04-01T21:22:28.340Z,98605.89
2023-04-01T21:25:30.545Z,98604.02
2023-04-01T21:28:26.495Z,98604.75
2023-04-01T21:31:06.862Z,98602.13
2023-04-01T21:33:55.081Z,98605.69
2023-04-01T21:36:44.659Z,98610.91
2023-04-01T21:39:33.670Z,98614.55
2023-04-01T21:42:11.146Z,98612.86
2023-04-01T21:44:59.802Z,98613.48
2023-04-01T21:48:06.030Z,98612.37
2023-04-01T21:50:48.756Z,98611.29
2023-04-01T21:53:36.783Z,98614.83
2023-04-01T21:56:11.288Z,98615.89
2023-04-01T21:59:14.588Z,98611.81
2023-04-01T22:02:14.200Z,98613.11
2023-04-01T22:04:48.150Z,98617.91
2023-04-01T22:07:25.607Z,98620.73
2023-04-01T22:10:00.073Z,98623.96
2023-04-01T22:12:34.415Z,98626.48
2023-04-01T22:15:30.425Z,98626.37
2023-04-01T22:18:17.277Z,98630.83
2023-04-01T22:21:22.391Z,98627.66
2023-04-01T22:24:06.136Z,98629.23
2023-04-01T22:26:41.443Z,98633.15
2023-04-01T22:29:30.518Z,98630.88
2023-04-01T22:32:07.422Z,98630.33
2023-04-01T22:34:48.694Z,98627.87
2023-04-01T22:37:26.735Z,98625.11
2023-04-01T22:40:05.788Z,98626.36
2023-04-01T22:42:43.249Z,98622.62
2023-04-01T22:45:14.918Z,98623.42
2023-04-01T22:47:57.901Z,98623.75
2023-04-01T22:50:52.447Z,98622.92
2023-04-01T22:53:58.673Z,98622.89
2023-04-01T22:56:36.661Z,98622.57
2023-04-01T22:59:21.247Z,98620.25
2023-04-01T23:01:54.466Z,98622.48
2023-04-01T23:06:42.329Z,98631.27
2023-04-01T23:09:16.802Z,98624.86
2023-04-01T23:12:06.325Z,98626.38
2023-04-01T23:14:50.200Z,98626.00
2023-04-01T23:17:49.698Z,98617.95
2023-04-01T23:20:54.842Z,98621.88
2023-04-01T23:23:35.965Z,98623.58
2023-04-01T23:26:10.986Z,98622.05
2023-04-01T23:28:55.143Z,98625.15
2023-04-01T23:31:30.792Z,98622.55
2023-04-01T23:34:04.127Z,98623.71
2023-04-01T23:36:32.803Z,98623.42
2023-04-01T23:39:33.962Z,98624.78
2023-04-01T23:42:07.457Z,98629.36
2023-04-01T23:44:36.385Z,98629.70
2023-04-01T23:47:04.864Z,98634.63
2023-04-01T23:49:39.612Z,98636.83
2023-04-01T23:52:15.945Z,98637.54
2023-04-01T23:54:49.728Z,98635.09
2023-04-01T23:57:28.218Z,98634.14
